Time;durP1;ratioP1;P1;durP2;ratioP2;P2;SDS_P1;SDS_P2;PMS_P1;PMS_P2;Temp;Humidity;BMP_temperature;BMP_pressure;BME280_temperature;BME280_humidity;BME280_pressure;Samples;Min_cycle;Max_cycle;Signal;HPM_P1;HPM_P2
2022/09/13 00:01:31;;;;;;;9.47;7.57;;;;;;;13.78;100.00;99670.66;5004467;28;20217;-71
2022/09/13 00:03:56;;;;;;;11.07;7.67;;;;;;;13.66;100.00;99661.25;5014829;28;20190;-75
2022/09/13 00:06:22;;;;;;;8.43;7.40;;;;;;;13.55;100.00;99664.63;5016925;28;20197;-71
2022/09/13 00:08:48;;;;;;;10.00;7.83;;;;;;;13.55;100.00;99664.63;5026296;28;20190;-70
2022/09/13 00:11:16;;;;;;;9.43;8.37;;;;;;;13.52;100.00;99662.25;5028079;28;20252;-70
2022/09/13 00:13:42;;;;;;;11.30;8.03;;;;;;;13.48;100.00;99660.84;5023917;28;20181;-71
2022/09/13 00:16:15;;;;;;;8.80;7.90;;;;;;;13.54;100.00;99650.03;5020454;28;20542;-70
2022/09/13 00:18:41;;;;;;;11.60;8.57;;;;;;;13.42;100.00;99643.19;5009214;28;20532;-70
2022/09/13 00:21:10;;;;;;;8.83;7.93;;;;;;;13.38;100.00;99642.59;5018102;28;20700;-71
2022/09/13 00:23:36;;;;;;;9.30;8.40;;;;;;;13.48;100.00;99641.00;5035051;28;20233;-72
2022/09/13 00:26:05;;;;;;;10.53;8.40;;;;;;;13.44;100.00;99626.66;5023260;28;20259;-72
2022/09/13 00:28:30;;;;;;;8.90;8.03;;;;;;;13.36;100.00;99634.13;5012483;28;20188;-71
2022/09/13 00:30:59;;;;;;;9.67;8.20;;;;;;;13.33;100.00;99637.72;5002023;28;21191;-71
2022/09/13 00:33:24;;;;;;;10.77;8.33;;;;;;;13.40;100.00;99636.38;5015497;28;20178;-70
2022/09/13 00:35:50;;;;;;;10.03;7.77;;;;;;;13.36;100.00;99631.53;5021130;28;20197;-71
2022/09/13 00:38:15;;;;;;;12.27;8.27;;;;;;;13.31;100.00;99633.63;5024613;28;20221;-71
2022/09/13 00:40:40;;;;;;;8.80;7.90;;;;;;;13.30;100.00;99639.75;5016691;28;20221;-70
2022/09/13 00:43:16;;;;;;;9.13;8.33;;;;;;;13.23;100.00;99629.88;5034264;28;20707;-71
2022/09/13 00:45:41;;;;;;;11.00;8.60;;;;;;;13.14;100.00;99616.81;5012962;28;20589;-70
2022/09/13 00:48:11;;;;;;;12.40;8.43;;;;;;;13.12;100.00;99619.47;5019051;28;20182;-71
2022/09/13 00:50:41;;;;;;;9.07;8.17;;;;;;;13.11;100.00;99627.34;5008349;28;20253;-70
2022/09/13 00:53:11;;;;;;;10.20;9.20;;;;;;;13.06;100.00;99622.50;5011515;28;20194;-70
2022/09/13 00:55:42;;;;;;;10.30;7.87;;;;;;;13.12;100.00;99614.31;5023287;28;20633;-71
2022/09/13 00:58:19;;;;;;;9.03;8.13;;;;;;;13.02;100.00;99618.50;5021837;28;20248;-70
2022/09/13 01:00:44;;;;;;;8.87;8.07;;;;;;;13.14;100.00;99620.19;5025253;28;20610;-70
2022/09/13 01:03:13;;;;;;;8.77;7.97;;;;;;;13.13;100.00;99612.56;5018470;28;20222;-70
2022/09/13 01:05:49;;;;;;;9.70;8.80;;;;;;;13.04;100.00;99629.56;5022972;28;20285;-70
2022/09/13 01:08:21;;;;;;;10.07;8.63;;;;;;;13.11;100.00;99637.66;5029543;28;20207;-70
2022/09/13 01:10:49;;;;;;;9.97;8.17;;;;;;;13.05;100.00;99637.19;5008336;28;20296;-70
2022/09/13 01:13:31;;;;;;;8.47;7.67;;;;;;;12.93;100.00;99637.25;5018771;28;20953;-70
2022/09/13 01:15:58;;;;;;;9.63;8.03;;;;;;;12.99;100.00;99631.66;5019879;28;20178;-71
2022/09/13 01:18:23;;;;;;;9.47;8.03;;;;;;;13.01;100.00;99625.44;5029204;28;20209;-71
2022/09/13 01:21:16;;;;;;;9.87;8.30;;;;;;;12.89;100.00;99636.66;5017484;28;20229;-70
2022/09/13 01:24:03;;;;;;;9.57;8.60;;;;;;;12.86;100.00;99634.28;5007859;28;20348;-71
2022/09/13 01:27:06;;;;;;;10.23;8.40;;;;;;;12.86;100.00;99624.78;5022163;28;20242;-70
2022/09/13 01:30:02;;;;;;;9.60;8.20;;;;;;;12.78;100.00;99610.78;5019771;28;20229;-71
2022/09/13 01:32:56;;;;;;;9.47;8.17;;;;;;;12.49;100.00;99596.44;4996550;28;20297;-71
2022/09/13 01:35:46;;;;;;;9.83;8.33;;;;;;;12.33;100.00;99590.69;5010428;28;20245;-70
2022/09/13 01:38:23;;;;;;;8.73;7.77;;;;;;;12.46;100.00;99596.63;5020273;28;20328;-71
2022/09/13 01:41:13;;;;;;;9.40;7.57;;;;;;;12.58;100.00;99600.94;5010767;28;20287;-70
2022/09/13 01:43:56;;;;;;;8.80;7.90;;;;;;;12.58;100.00;99600.13;5026295;28;20676;-75
2022/09/13 01:46:27;;;;;;;10.23;7.97;;;;;;;12.57;100.00;99606.22;5009411;28;20232;-71
2022/09/13 01:49:02;;;;;;;9.83;8.83;;;;;;;12.66;100.00;99618.44;5020620;28;20179;-71
2022/09/13 01:51:35;;;;;;;9.53;8.00;;;;;;;12.59;100.00;99625.00;4996807;28;20237;-72
2022/09/13 01:54:12;;;;;;;11.67;8.30;;;;;;;12.57;100.00;99635.41;5019721;28;20309;-71
2022/09/13 01:56:44;;;;;;;10.83;8.93;;;;;;;12.66;100.00;99626.19;5017231;28;20185;-71
2022/09/13 01:59:39;;;;;;;9.47;8.43;;;;;;;12.49;100.00;99634.28;5016861;28;20179;-71
2022/09/13 02:02:16;;;;;;;11.00;9.33;;;;;;;12.54;100.00;99622.72;4981936;28;20283;-71
2022/09/13 02:04:47;;;;;;;10.77;9.77;;;;;;;12.52;100.00;99634.09;4985433;28;20198;-71
2022/09/13 02:07:18;;;;;;;13.33;9.60;;;;;;;12.50;100.00;99633.38;5000265;28;20199;-71
2022/09/13 02:09:49;;;;;;;12.93;9.47;;;;;;;12.48;100.00;99636.06;4974763;28;20183;-71
2022/09/13 02:12:23;;;;;;;12.13;10.00;;;;;;;12.37;100.00;99643.72;4979795;28;20675;-71
2022/09/13 02:14:56;;;;;;;10.60;9.50;;;;;;;12.39;100.00;99631.53;4975326;28;20293;-73
2022/09/13 02:17:27;;;;;;;10.10;9.17;;;;;;;12.36;100.00;99634.34;4993211;28;20184;-70
2022/09/13 02:20:11;;;;;;;10.70;9.60;;;;;;;12.33;100.00;99635.38;4980403;28;20335;-71
2022/09/13 02:22:45;;;;;;;11.10;9.87;;;;;;;12.46;100.00;99630.16;4964503;28;20298;-71
2022/09/13 02:25:14;;;;;;;11.30;10.07;;;;;;;12.57;100.00;99644.91;4988001;28;20190;-71
2022/09/13 02:27:46;;;;;;;10.57;9.67;;;;;;;12.63;100.00;99641.06;4991570;28;20294;-70
2022/09/13 02:30:13;;;;;;;11.77;9.40;;;;;;;12.78;100.00;99645.16;4990175;28;20221;-71
2022/09/13 02:32:51;;;;;;;10.67;9.47;;;;;;;12.79;100.00;99643.38;4991130;28;20242;-71
2022/09/13 02:35:20;;;;;;;10.23;9.23;;;;;;;12.68;100.00;99636.41;4998698;28;20182;-71
2022/09/13 02:37:50;;;;;;;10.80;9.77;;;;;;;12.68;100.00;99639.81;5002193;28;20193;-71
2022/09/13 02:40:22;;;;;;;10.17;9.17;;;;;;;12.82;100.00;99640.59;5010839;28;20553;-71
2022/09/13 02:42:57;;;;;;;15.13;10.23;;;;;;;12.90;100.00;99646.03;5036230;28;20628;-71
2022/09/13 02:45:32;;;;;;;12.87;10.23;;;;;;;12.95;100.00;99643.94;5024230;28;20268;-70
2022/09/13 02:48:03;;;;;;;10.47;9.47;;;;;;;13.07;100.00;99642.22;5018904;28;20280;-76
2022/09/13 02:50:43;;;;;;;10.50;9.50;;;;;;;13.14;100.00;99646.00;5005879;28;20653;-71
2022/09/13 02:53:24;;;;;;;10.97;9.60;;;;;;;13.04;100.00;99642.47;5001585;28;20191;-71
2022/09/13 02:55:57;;;;;;;10.07;9.07;;;;;;;13.25;100.00;99634.91;5016894;28;20550;-71
2022/09/13 02:58:47;;;;;;;11.63;10.07;;;;;;;13.18;100.00;99634.53;5015399;28;20302;-71
2022/09/13 03:01:13;;;;;;;10.50;9.20;;;;;;;13.14;100.00;99633.09;4990291;28;20769;-71
2022/09/13 03:03:39;;;;;;;11.03;9.30;;;;;;;13.15;100.00;99628.78;5008025;28;20218;-75
2022/09/13 03:06:04;;;;;;;11.07;9.60;;;;;;;13.02;100.00;99621.09;5016197;28;20186;-71
2022/09/13 03:08:30;;;;;;;13.83;8.57;;;;;;;13.02;100.00;99609.00;5022307;28;20190;-72
2022/09/13 03:11:06;;;;;;;9.47;8.47;;;;;;;13.01;100.00;99615.09;5008056;28;20697;-71
2022/09/13 03:13:57;;;;;;;10.57;9.47;;;;;;;13.19;100.00;99607.75;5002703;28;20190;-71
2022/09/13 03:16:43;;;;;;;9.70;8.70;;;;;;;13.29;100.00;99607.09;5003111;28;20591;-70
2022/09/13 03:19:25;;;;;;;9.43;8.37;;;;;;;13.39;100.00;99611.47;5017426;28;20186;-70
2022/09/13 03:22:09;;;;;;;9.10;8.17;;;;;;;13.45;100.00;99606.81;5018407;28;20699;-71
2022/09/13 03:25:06;;;;;;;9.53;8.57;;;;;;;13.34;100.00;99603.22;5017359;28;20198;-71
2022/09/13 03:28:21;;;;;;;9.90;8.90;;;;;;;13.40;100.00;99607.97;5018682;28;20279;-71
2022/09/13 03:31:00;;;;;;;9.33;8.20;;;;;;;13.48;100.00;99602.25;4984653;28;20273;-71
2022/09/13 03:33:43;;;;;;;10.10;8.40;;;;;;;13.41;100.00;99608.81;5013864;28;20218;-71
2022/09/13 03:36:20;;;;;;;9.20;8.30;;;;;;;13.53;100.00;99600.13;5025049;28;20188;-71
2022/09/13 03:38:59;;;;;;;9.63;8.73;;;;;;;13.58;100.00;99591.22;5026177;28;20285;-73
2022/09/13 03:41:31;;;;;;;9.00;8.20;;;;;;;13.56;100.00;99588.75;5012715;28;20276;-71
2022/09/13 03:44:04;;;;;;;11.03;9.67;;;;;;;13.20;100.00;99588.75;5019511;28;20256;-73
2022/09/13 03:46:55;;;;;;;12.27;9.30;;;;;;;13.17;100.00;99588.16;5024053;28;20182;-70
2022/09/13 03:49:22;;;;;;;10.17;9.17;;;;;;;13.39;100.00;99583.06;5012375;28;20214;-70
2022/09/13 03:51:50;;;;;;;9.40;8.50;;;;;;;13.51;100.00;99575.34;5005736;28;20230;-70
2022/09/13 03:54:21;;;;;;;11.20;10.10;;;;;;;13.43;100.00;99575.91;5012370;28;20186;-70
2022/09/13 03:57:12;;;;;;;11.03;9.83;;;;;;;13.28;100.00;99574.47;5026259;28;20244;-71
2022/09/13 03:59:44;;;;;;;10.70;9.70;;;;;;;13.30;100.00;99567.44;5011407;28;20186;-71
2022/09/13 04:02:10;;;;;;;9.67;8.83;;;;;;;13.45;100.00;99568.06;5001938;28;20309;-70
2022/09/13 04:04:38;;;;;;;10.80;9.70;;;;;;;13.56;100.00;99562.91;5018983;28;20660;-71
2022/09/13 04:07:03;;;;;;;10.37;9.37;;;;;;;13.59;100.00;99565.25;5017794;28;20190;-71
2022/09/13 04:09:30;;;;;;;10.00;9.00;;;;;;;13.63;100.00;99568.44;5013965;28;20294;-71
2022/09/13 04:11:55;;;;;;;10.93;9.73;;;;;;;13.64;100.00;99564.91;5028898;28;20221;-71
2022/09/13 04:14:21;;;;;;;11.83;10.60;;;;;;;13.69;100.00;99563.63;5021104;28;20555;-71
2022/09/13 04:16:46;;;;;;;10.10;9.10;;;;;;;13.73;100.00;99564.22;5026114;28;20217;-71
2022/09/13 04:19:12;;;;;;;11.27;9.97;;;;;;;13.73;100.00;99569.38;5023769;28;20186;-71
2022/09/13 04:21:38;;;;;;;10.53;9.63;;;;;;;13.74;100.00;99562.44;5032816;28;20676;-70
2022/09/13 04:24:03;;;;;;;11.07;9.50;;;;;;;13.79;100.00;99568.91;5026820;28;20186;-71
2022/09/13 04:26:29;;;;;;;11.90;10.00;;;;;;;13.82;100.00;99573.84;5023400;28;20191;-70
2022/09/13 04:28:54;;;;;;;12.50;10.20;;;;;;;13.67;100.00;99580.19;5027572;28;20276;-70
2022/09/13 04:31:20;;;;;;;10.60;9.50;;;;;;;13.77;100.00;99580.28;5016798;28;20295;-71
2022/09/13 04:33:45;;;;;;;10.53;9.00;;;;;;;13.57;100.00;99580.06;5021795;28;20190;-71
2022/09/13 04:36:10;;;;;;;11.90;9.80;;;;;;;13.54;100.00;99575.13;5018943;28;20182;-71
2022/09/13 04:38:36;;;;;;;10.53;9.27;;;;;;;13.62;100.00;99579.69;5029732;28;20273;-72
2022/09/13 04:41:02;;;;;;;10.10;9.17;;;;;;;13.64;100.00;99585.56;5009177;28;20228;-71
2022/09/13 04:43:27;;;;;;;10.73;9.63;;;;;;;13.64;100.00;99586.38;5021345;28;20218;-71
2022/09/13 04:45:52;;;;;;;11.37;9.60;;;;;;;13.68;100.00;99593.00;5020575;28;20228;-71
2022/09/13 04:48:18;;;;;;;11.60;9.00;;;;;;;13.71;100.00;99585.00;5020121;28;20545;-71
2022/09/13 04:50:43;;;;;;;15.30;9.60;;;;;;;13.82;100.00;99591.94;5001942;28;20238;-71
2022/09/13 04:53:09;;;;;;;10.77;9.87;;;;;;;13.80;100.00;99591.22;5015171;28;20284;-71
2022/09/13 04:55:35;;;;;;;11.50;9.67;;;;;;;13.75;100.00;99588.16;5024417;28;20190;-71
2022/09/13 04:58:01;;;;;;;10.73;9.63;;;;;;;13.72;100.00;99596.16;5018370;28;20196;-71
2022/09/13 05:00:27;;;;;;;14.37;10.07;;;;;;;13.62;100.00;99590.03;5009861;28;20321;-71
2022/09/13 05:02:55;;;;;;;10.80;9.77;;;;;;;13.64;100.00;99581.22;5026540;28;20199;-70
2022/09/13 05:05:22;;;;;;;10.30;9.30;;;;;;;13.74;100.00;99593.47;5021600;28;20194;-71
2022/09/13 05:07:51;;;;;;;11.50;9.80;;;;;;;13.85;100.00;99598.63;5023360;28;20224;-71
2022/09/13 05:10:17;;;;;;;9.97;8.97;;;;;;;14.00;100.00;99599.22;5009965;28;20594;-71
2022/09/13 05:12:43;;;;;;;10.63;9.07;;;;;;;14.02;100.00;99598.16;5024020;28;20215;-70
2022/09/13 05:15:09;;;;;;;10.37;9.33;;;;;;;14.18;100.00;99609.91;5019345;28;20637;-70
2022/09/13 05:17:34;;;;;;;12.33;10.97;;;;;;;14.16;100.00;99606.63;5019873;28;20780;-71
2022/09/13 05:20:00;;;;;;;12.40;10.43;;;;;;;14.04;100.00;99603.22;5017999;28;20198;-71
2022/09/13 05:22:25;;;;;;;11.10;9.23;;;;;;;14.13;100.00;99601.69;5030239;28;20234;-70
2022/09/13 05:24:51;;;;;;;11.43;9.37;;;;;;;14.24;100.00;99611.19;5014070;28;20182;-70
2022/09/13 05:27:16;;;;;;;12.17;8.77;;;;;;;14.31;100.00;99623.56;5015607;28;20264;-72
2022/09/13 05:29:41;;;;;;;10.23;9.17;;;;;;;14.43;100.00;99626.13;5020824;28;20217;-70
2022/09/13 05:32:07;;;;;;;8.83;7.97;;;;;;;14.49;100.00;99629.03;5020565;28;20700;-71
2022/09/13 05:34:32;;;;;;;10.67;8.93;;;;;;;14.59;100.00;99638.69;5013184;28;20241;-71
2022/09/13 05:36:57;;;;;;;11.70;10.10;;;;;;;14.57;100.00;99645.72;5018310;28;20189;-72
2022/09/13 05:39:23;;;;;;;14.37;10.10;;;;;;;14.57;100.00;99649.13;5022538;28;20186;-70
2022/09/13 05:41:48;;;;;;;9.33;8.43;;;;;;;14.56;100.00;99644.09;5005267;28;20233;-71
2022/09/13 05:44:14;;;;;;;10.90;9.77;;;;;;;14.56;100.00;99649.25;5020842;28;20189;-70
2022/09/13 05:46:41;;;;;;;10.83;9.23;;;;;;;14.62;100.00;99634.06;5026862;28;20206;-70
2022/09/13 05:49:06;;;;;;;10.77;9.40;;;;;;;14.57;100.00;99638.78;5022278;28;20247;-71
2022/09/13 05:51:31;;;;;;;10.77;8.77;;;;;;;14.72;100.00;99634.19;5012522;28;20312;-71
2022/09/13 05:53:57;;;;;;;9.47;8.53;;;;;;;14.78;100.00;99632.88;5020466;28;20170;-71
2022/09/13 05:56:25;;;;;;;9.77;8.83;;;;;;;14.79;100.00;99629.34;5017437;28;20644;-70
2022/09/13 05:58:52;;;;;;;10.63;9.53;;;;;;;14.74;100.00;99632.31;5019737;28;20183;-70
2022/09/13 06:01:23;;;;;;;9.60;8.73;;;;;;;14.79;100.00;99629.34;5007751;28;20693;-71
2022/09/13 06:03:50;;;;;;;9.33;8.40;;;;;;;14.89;100.00;99630.25;5023265;28;20224;-72
2022/09/13 06:06:17;;;;;;;9.67;8.77;;;;;;;14.91;100.00;99622.34;5015590;28;20230;-71
2022/09/13 06:08:43;;;;;;;11.13;9.43;;;;;;;14.93;100.00;99615.31;5028102;28;20241;-71
2022/09/13 06:11:12;;;;;;;12.23;9.03;;;;;;;15.04;100.00;99615.25;5013110;28;20276;-70
2022/09/13 06:13:38;;;;;;;9.93;8.97;;;;;;;15.27;100.00;99622.91;5032439;28;20189;-71
2022/09/13 06:16:09;;;;;;;9.90;8.90;;;;;;;15.29;100.00;99614.09;5013160;28;20187;-70
2022/09/13 06:18:35;;;;;;;11.77;9.20;;;;;;;15.58;100.00;99615.19;5018548;28;20175;-73
2022/09/13 06:21:07;;;;;;;12.33;9.37;;;;;;;15.52;100.00;99610.50;5011709;28;20222;-70
2022/09/13 06:23:33;;;;;;;10.50;9.10;;;;;;;15.75;100.00;99604.25;5014471;28;20225;-71
2022/09/13 06:26:07;;;;;;;11.10;8.83;;;;;;;15.88;100.00;99617.03;5013968;28;20218;-70
2022/09/13 06:28:34;;;;;;;11.77;9.07;;;;;;;15.93;100.00;99621.84;5016030;28;20187;-71
2022/09/13 06:31:07;;;;;;;9.57;8.67;;;;;;;16.00;100.00;99625.56;5003787;28;20307;-71
2022/09/13 06:33:34;;;;;;;15.60;9.90;;;;;;;16.11;100.00;99632.41;5013329;28;20189;-72
2022/09/13 06:36:05;;;;;;;9.50;8.10;;;;;;;16.05;100.00;99651.09;5021566;28;20271;-71
2022/09/13 06:38:30;;;;;;;8.90;6.83;;;;;;;15.92;100.00;99643.53;5025494;28;20189;-72
2022/09/13 06:41:00;;;;;;;7.73;6.93;;;;;;;15.75;100.00;99644.91;5018855;28;20237;-70
2022/09/13 06:43:26;;;;;;;7.57;6.87;;;;;;;15.87;100.00;99645.69;5021973;28;20380;-71
2022/09/13 06:45:52;;;;;;;7.87;7.17;;;;;;;15.87;100.00;99649.09;5024692;28;20345;-71
2022/09/13 06:48:18;;;;;;;10.20;6.90;;;;;;;15.90;100.00;99655.78;5012273;28;20633;-71
2022/09/13 06:50:44;;;;;;;9.43;7.93;;;;;;;15.89;100.00;99649.78;5018887;28;20256;-71
2022/09/13 06:53:09;;;;;;;10.53;7.87;;;;;;;16.01;100.00;99650.50;5020605;28;20178;-71
2022/09/13 06:55:35;;;;;;;10.30;9.00;;;;;;;16.11;100.00;99655.75;5028607;28;20189;-71
2022/09/13 06:58:00;;;;;;;9.23;8.27;;;;;;;16.25;100.00;99655.41;5027718;28;20189;-72
2022/09/13 07:00:25;;;;;;;11.70;8.93;;;;;;;16.32;100.00;99653.09;4992602;28;20372;-71
2022/09/13 07:02:51;;;;;;;7.90;7.10;;;;;;;16.28;100.00;99652.53;5001698;28;20693;-71
2022/09/13 07:05:17;;;;;;;7.87;7.17;;;;;;;16.33;100.00;99659.13;5023382;28;20340;-71
2022/09/13 07:07:43;;;;;;;7.43;6.80;;;;;;;16.19;100.00;99668.09;5023647;28;20248;-70
2022/09/13 07:10:08;;;;;;;9.30;8.40;;;;;;;16.22;100.00;99662.63;5004590;28;20566;-71
2022/09/13 07:12:34;;;;;;;10.87;7.53;;;;;;;16.28;100.00;99667.28;5040690;28;20672;-71
2022/09/13 07:14:59;;;;;;;8.40;7.63;;;;;;;16.38;100.00;99670.72;5023719;28;20194;-71
2022/09/13 07:17:26;;;;;;;8.83;7.40;;;;;;;16.48;100.00;99662.97;5009086;28;20283;-71
2022/09/13 07:19:51;;;;;;;12.63;7.83;;;;;;;16.55;100.00;99651.13;5016824;28;20187;-71
2022/09/13 07:22:17;;;;;;;8.90;7.70;;;;;;;16.43;100.00;99654.78;5008264;28;20241;-70
2022/09/13 07:24:42;;;;;;;9.53;8.47;;;;;;;15.99;100.00;99657.63;5006371;28;20326;-71
2022/09/13 07:27:07;;;;;;;10.23;8.97;;;;;;;16.05;100.00;99643.28;5031496;28;20293;-73
2022/09/13 07:29:33;;;;;;;10.07;8.23;;;;;;;15.76;100.00;99631.81;5013835;28;20700;-71
2022/09/13 07:31:58;;;;;;;10.03;9.03;;;;;;;15.90;100.00;99638.47;4976724;28;20279;-70
2022/09/13 07:34:25;;;;;;;13.50;9.00;;;;;;;16.05;100.00;99625.97;5024171;28;20205;-72
2022/09/13 07:36:51;;;;;;;9.60;8.60;;;;;;;15.85;100.00;99624.25;5020237;28;20275;-73
2022/09/13 07:39:17;;;;;;;9.50;8.63;;;;;;;15.46;100.00;99623.03;5021435;28;20193;-74
2022/09/13 07:41:44;;;;;;;10.27;9.27;;;;;;;15.36;100.00;99604.03;5001689;28;20238;-74
2022/09/13 07:44:10;;;;;;;11.87;9.43;;;;;;;15.12;100.00;99610.28;5019800;28;20565;-73
2022/09/13 07:46:38;;;;;;;10.63;8.50;;;;;;;15.16;100.00;99606.47;5018562;28;20245;-74
2022/09/13 07:49:04;;;;;;;14.40;9.50;;;;;;;15.40;100.00;99607.19;5015304;28;20248;-74
2022/09/13 07:51:32;;;;;;;10.53;9.53;;;;;;;15.57;100.00;99613.56;5010537;28;20232;-73
2022/09/13 07:54:03;;;;;;;11.40;10.27;;;;;;;15.90;100.00;99620.31;5016482;28;20183;-75
2022/09/13 07:56:37;;;;;;;12.03;10.83;;;;;;;16.07;100.00;99618.06;5020183;28;20241;-74
2022/09/13 07:59:05;;;;;;;11.23;9.97;;;;;;;16.15;100.00;99610.44;5020556;28;20218;-74
2022/09/13 08:01:35;;;;;;;11.07;9.90;;;;;;;16.33;100.00;99602.03;5017936;28;20716;-73
2022/09/13 08:04:03;;;;;;;11.47;10.40;;;;;;;16.34;100.00;99593.28;5031013;28;20313;-74
2022/09/13 08:06:30;;;;;;;11.40;10.27;;;;;;;16.57;100.00;99591.25;5021741;28;20190;-73
2022/09/13 08:08:56;;;;;;;13.10;11.53;;;;;;;16.69;100.00;99599.75;5023584;28;20277;-76
2022/09/13 08:11:29;;;;;;;13.30;11.57;;;;;;;16.93;100.00;99594.16;5037996;28;20332;-74
2022/09/13 08:13:54;;;;;;;12.63;11.17;;;;;;;17.12;100.00;99602.91;5025969;28;20180;-73
2022/09/13 08:16:22;;;;;;;12.47;11.27;;;;;;;17.24;100.00;99612.19;5013307;28;20195;-72
2022/09/13 08:18:49;;;;;;;12.23;10.93;;;;;;;17.40;100.00;99612.47;5020241;28;20229;-73
2022/09/13 08:21:15;;;;;;;14.77;11.77;;;;;;;17.59;100.00;99623.78;5021851;28;20615;-72
2022/09/13 08:23:40;;;;;;;13.33;11.60;;;;;;;17.68;100.00;99633.34;5025526;28;20195;-73
2022/09/13 08:26:07;;;;;;;19.47;11.40;;;;;;;17.94;100.00;99640.53;5024917;28;20263;-72
2022/09/13 08:28:33;;;;;;;13.13;10.33;;;;;;;17.90;100.00;99645.19;5026014;28;20560;-72
2022/09/13 08:31:14;;;;;;;12.30;11.20;;;;;;;17.77;100.00;99647.28;5016204;28;20306;-71
2022/09/13 08:33:42;;;;;;;11.23;10.10;;;;;;;17.94;100.00;99652.72;5034986;28;20236;-74
2022/09/13 08:36:07;;;;;;;12.37;10.33;;;;;;;17.96;100.00;99651.63;5017990;28;20314;-71
2022/09/13 08:38:33;;;;;;;13.30;10.07;;;;;;;17.77;100.00;99649.06;5027124;28;20198;-71
2022/09/13 08:41:04;;;;;;;11.47;10.27;;;;;;;17.65;100.00;99648.41;5023737;28;20237;-71
2022/09/13 08:43:55;;;;;;;19.83;11.03;;;;;;;17.48;100.00;99648.16;5013970;28;20673;-71
2022/09/13 08:46:25;;;;;;;11.03;9.93;;;;;;;17.19;100.00;99643.00;5016718;28;20199;-72
2022/09/13 08:48:54;;;;;;;12.23;10.93;;;;;;;16.88;100.00;99646.53;5027550;28;20178;-71
2022/09/13 08:51:34;;;;;;;12.13;10.93;;;;;;;16.68;100.00;99648.25;5007720;28;20237;-70
2022/09/13 08:53:59;;;;;;;13.47;11.63;;;;;;;16.73;100.00;99630.53;5018869;28;20181;-71
2022/09/13 08:56:37;;;;;;;14.40;11.77;;;;;;;16.46;100.00;99625.97;5029076;28;20593;-72
2022/09/13 08:59:22;;;;;;;13.53;11.77;;;;;;;16.24;100.00;99609.63;5025525;28;20231;-74
2022/09/13 09:02:03;;;;;;;16.07;13.03;;;;;;;16.51;100.00;99615.16;5020717;28;20263;-75
2022/09/13 09:04:49;;;;;;;12.90;11.60;;;;;;;16.56;100.00;99608.63;5020504;28;20205;-75
2022/09/13 09:07:23;;;;;;;17.80;12.97;;;;;;;16.82;100.00;99617.66;5003625;28;20189;-76
2022/09/13 09:09:57;;;;;;;18.50;13.57;;;;;;;16.86;100.00;99619.03;5010520;28;20193;-75
2022/09/13 09:12:38;;;;;;;15.77;13.20;;;;;;;16.87;100.00;99631.06;5007987;28;20292;-75
2022/09/13 09:15:17;;;;;;;15.23;13.63;;;;;;;17.08;100.00;99630.97;5015712;28;20186;-75
2022/09/13 09:17:51;;;;;;;15.27;13.30;;;;;;;16.97;100.00;99620.69;5011610;28;20182;-75
2022/09/13 09:20:45;;;;;;;17.67;13.70;;;;;;;17.21;100.00;99625.50;5009982;28;20217;-75
2022/09/13 09:23:20;;;;;;;19.80;14.37;;;;;;;17.63;100.00;99621.72;5034247;28;20343;-73
2022/09/13 09:25:46;;;;;;;17.13;13.13;;;;;;;17.70;100.00;99626.22;5017907;28;20627;-73
2022/09/13 09:28:17;;;;;;;13.77;12.40;;;;;;;17.45;100.00;99626.81;5030451;28;20197;-73
2022/09/13 09:31:14;;;;;;;15.00;12.40;;;;;;;17.53;100.00;99630.34;5001913;28;20373;-73
2022/09/13 09:34:21;;;;;;;13.43;12.13;;;;;;;17.69;100.00;99623.75;5022184;28;20189;-72
2022/09/13 09:37:06;;;;;;;17.53;12.13;;;;;;;17.56;100.00;99622.28;5016830;28;20181;-71
2022/09/13 09:39:37;;;;;;;15.13;12.87;;;;;;;17.56;100.00;99629.25;5021156;28;20711;-72
2022/09/13 09:42:04;;;;;;;14.30;12.90;;;;;;;17.50;100.00;99646.25;5002113;28;20233;-72
2022/09/13 09:44:32;;;;;;;14.17;12.80;;;;;;;17.43;100.00;99652.97;4999341;28;20206;-72
2022/09/13 09:47:19;;;;;;;15.20;12.97;;;;;;;17.29;100.00;99651.63;5025138;28;20662;-71
2022/09/13 09:52:44;;;;;;;13.63;12.33;;;;;;;17.34;100.00;99636.44;5010413;28;20229;-71
2022/09/13 09:55:26;;;;;;;14.53;13.00;;;;;;;17.43;100.00;99625.19;5017676;28;20174;-71
2022/09/13 09:58:01;;;;;;;14.93;13.43;;;;;;;17.07;100.00;99614.56;5021830;28;20214;-72
2022/09/13 10:00:33;;;;;;;14.63;13.13;;;;;;;16.64;100.00;99612.31;5018041;28;20298;-73
2022/09/13 10:03:08;;;;;;;15.37;13.53;;;;;;;16.85;100.00;99631.19;5022503;28;20202;-71
2022/09/13 10:05:34;;;;;;;16.50;14.13;;;;;;;17.19;100.00;99623.03;5009603;28;20182;-71
2022/09/13 10:08:01;;;;;;;15.20;13.70;;;;;;;17.12;100.00;99618.50;5013730;28;20231;-71
2022/09/13 10:10:41;;;;;;;15.03;13.63;;;;;;;17.16;100.00;99617.28;5010433;28;20225;-72
2022/09/13 10:13:15;;;;;;;16.20;13.70;;;;;;;17.48;100.00;99613.56;5020758;28;20265;-71
2022/09/13 10:15:53;;;;;;;15.57;13.97;;;;;;;17.36;100.00;99603.28;5017831;28;20212;-71
2022/09/13 10:18:21;;;;;;;14.60;12.87;;;;;;;17.48;100.00;99621.34;5021069;28;20231;-72
2022/09/13 10:21:16;;;;;;;14.33;12.83;;;;;;;17.46;100.00;99631.88;5002132;28;20811;-71
2022/09/13 10:23:42;;;;;;;15.70;13.97;;;;;;;17.69;100.00;99629.78;5013407;28;20963;-71
2022/09/13 10:26:11;;;;;;;16.73;13.50;;;;;;;17.72;100.00;99632.09;5017024;28;20206;-71
2022/09/13 10:29:00;;;;;;;13.83;12.43;;;;;;;17.58;100.00;99635.94;5039730;28;20186;-73
2022/09/13 10:31:35;;;;;;;13.87;12.47;;;;;;;17.77;100.00;99642.06;5012252;28;20309;-71
2022/09/13 10:34:12;;;;;;;14.57;13.27;;;;;;;17.80;100.00;99647.00;5019734;28;20196;-71
2022/09/13 10:36:50;;;;;;;14.67;12.97;;;;;;;17.80;100.00;99649.59;5010141;28;20186;-72
2022/09/13 10:39:20;;;;;;;14.80;13.40;;;;;;;18.02;100.00;99660.63;5024988;28;20281;-72
2022/09/13 10:42:01;;;;;;;12.47;11.40;;;;;;;18.15;100.00;99653.34;5024307;28;20229;-72
2022/09/13 10:44:44;;;;;;;10.57;9.57;;;;;;;18.16;100.00;99661.94;5014925;28;20201;-70
2022/09/13 10:47:18;;;;;;;8.43;7.57;;;;;;;18.23;100.00;99663.03;5024664;28;20224;-71
2022/09/13 10:49:51;;;;;;;8.13;7.30;;;;;;;18.60;100.00;99662.13;5034468;28;20191;-71
2022/09/13 10:52:45;;;;;;;7.50;5.83;;;;;;;18.86;100.00;99659.63;5020630;28;20260;-72
2022/09/13 10:55:17;;;;;;;8.20;6.03;;;;;;;19.27;100.00;99655.78;5023208;28;20566;-70
2022/09/13 10:57:44;;;;;;;6.63;6.00;;;;;;;19.30;100.00;99643.28;5017650;28;20193;-71
2022/09/13 11:00:29;;;;;;;7.03;6.37;;;;;;;19.40;100.00;99632.75;4988555;28;20549;-71
2022/09/13 11:02:58;;;;;;;8.37;6.07;;;;;;;19.59;100.00;99626.50;5020769;28;20195;-71
2022/09/13 11:05:27;;;;;;;7.43;6.70;;;;;;;19.66;100.00;99630.13;5021184;28;20218;-71
2022/09/13 11:08:21;;;;;;;11.40;6.27;;;;;;;19.81;100.00;99624.34;5015611;28;20187;-71
2022/09/13 11:11:12;;;;;;;6.77;6.10;;;;;;;19.72;100.00;99636.53;5017707;28;20269;-72
2022/09/13 11:13:47;;;;;;;6.97;5.63;;;;;;;19.69;100.00;99636.84;5017717;28;20673;-71
2022/09/13 11:16:31;;;;;;;6.70;5.70;;;;;;;19.25;100.00;99632.47;5019542;28;20255;-72
2022/09/13 11:19:36;;;;;;;7.80;5.40;;;;;;;19.48;100.00;99634.59;5026179;28;20184;-71
2022/09/13 11:22:21;;;;;;;7.40;5.00;;;;;;;19.66;100.00;99635.34;5003260;28;20244;-73
2022/09/13 11:24:57;;;;;;;5.83;5.33;;;;;;;20.07;99.77;99634.78;5012949;28;20182;-73
2022/09/13 11:27:43;;;;;;;5.23;4.57;;;;;;;20.35;100.00;99620.69;5023843;28;20210;-72
2022/09/13 11:30:24;;;;;;;5.17;4.67;;;;;;;20.24;93.09;99616.56;4982907;28;20193;-72
2022/09/13 11:33:23;;;;;;;5.97;5.27;;;;;;;20.16;96.25;99605.09;5010003;28;20214;-71
2022/09/13 11:36:30;;;;;;;10.70;5.97;;;;;;;19.72;100.00;99602.63;4991263;28;20194;-71
2022/09/13 11:39:27;;;;;;;6.57;5.97;;;;;;;18.91;100.00;99596.69;5002574;28;20202;-71
2022/09/13 11:42:09;;;;;;;6.73;5.87;;;;;;;18.97;100.00;99592.66;5005623;28;20344;-71
2022/09/13 11:44:52;;;;;;;7.30;6.13;;;;;;;19.16;100.00;99594.25;5017193;28;20188;-71